Wetterdaten: aktuell Donnerstag, 21.03.2019 05:00
Datum Zeit Temp. A. Luft Gew. Boden Gew. Boden A. Feuchte A. Luftdruck Regen Wind Richtung Richtung Sonnenschein ET UV Solar Taupunkt Windchill Windben Empfang
21.03.2019 05:00 -2.4 C -4.4 C 5.0 C 2.8 C 89 % 1036.5 hPa 0.0 l/m 0.1 km/h (0 Bft) O 82 0 min 0.000 mm 0.0 UV-I 0 W/m -4.0 C -2.4 C 1.6 km/h (1 Bft) 97.44 %
21.03.2019 04:00 -2.6 C -3.9 C 5.0 C 2.8 C 87 % 1036.6 hPa 0.0 l/m 0.0 km/h (0 Bft) O 82 0 min 0.000 mm 0.0 UV-I 0 W/m -4.5 C -2.6 C 0.0 km/h (0 Bft) 81.58 %
21.03.2019 03:00 -2.1 C -3.3 C 5.6 C 3.3 C 87 % 1036.8 hPa 0.0 l/m 0.0 km/h (0 Bft) O 82 0 min 0.000 mm 0.0 UV-I 0 W/m -4.0 C -2.1 C 0.0 km/h (0 Bft) 94.87 %
21.03.2019 02:00 -1.6 C -2.8 C 6.1 C 3.3 C 86 % 1037.0 hPa 0.0 l/m 0.0 km/h (0 Bft) O 82 0 min 0.000 mm 0.0 UV-I 0 W/m -3.6 C -1.6 C 0.0 km/h (0 Bft) 95.83 %
21.03.2019 01:00 -1.1 C -2.2 C 6.7 C 3.9 C 84 % 1037.2 hPa 0.0 l/m 0.0 km/h (0 Bft) O 82 0 min 0.000 mm 0.0 UV-I 0 W/m -3.4 C -1.1 C 0.0 km/h (0 Bft) 96.61 %
21.03.2019 00:00 -0.3 C -1.1 C 7.2 C 4.4 C 82 % 1037.4 hPa 0.0 l/m 0.0 km/h (0 Bft) O 82 0 min 0.000 mm 0.0 UV-I 0 W/m -3.0 C -0.3 C 0.0 km/h (0 Bft) 99.15 %
20.03.2019 23:00 0.5 C -0.6 C 7.8 C 4.4 C 79 % 1037.5 hPa 0.0 l/m 0.0 km/h (0 Bft) O 82 0 min 0.025 mm 0.0 UV-I 0 W/m -2.7 C 0.5 C 0.0 km/h (0 Bft) 98.29 %
20.03.2019 22:00 1.6 C 1.1 C 8.9 C 5.0 C 74 % 1037.3 hPa 0.0 l/m 0.0 km/h (0 Bft) O 82 0 min 0.025 mm 0.0 UV-I 0 W/m -2.5 C 1.6 C 0.0 km/h (0 Bft) 100.00 %
20.03.2019 21:00 3.4 C 3.3 C 9.4 C 6.1 C 66 % 1037.3 hPa 0.0 l/m 0.0 km/h (0 Bft) O 82 0 min 0.001 mm 0.0 UV-I 0 W/m -2.3 C 3.4 C 0.0 km/h (0 Bft) 94.87 %
20.03.2019 20:00 5.8 C 6.7 C 10.6 C 6.7 C 54 % 1036.9 hPa 0.0 l/m 0.0 km/h (0 Bft) O 82 0 min 0.025 mm 0.0 UV-I 0 W/m -2.8 C 5.8 C 0.0 km/h (0 Bft) 96.58 %
20.03.2019 19:00 7.3 C 12.2 C 12.2 C 7.8 C 50 % 1036.4 hPa 0.0 l/m 0.4 km/h (0 Bft) O 82 0 min 0.076 mm 0.0 UV-I 0 W/m -2.4 C 7.3 C 3.2 km/h (1 Bft) 96.61 %
20.03.2019 18:00 8.9 C 20.6 C 13.3 C 8.9 C 45 % 1036.2 hPa 0.0 l/m 4.6 km/h (1 Bft) O-NO 74 15 min 0.076 mm 0.0 UV-I 32 W/m -2.4 C 8.9 C 8.0 km/h (2 Bft) 93.16 %
20.03.2019 17:00 9.9 C 25.0 C 15.0 C 10.0 C 42 % 1035.8 hPa 0.0 l/m 3.2 km/h (1 Bft) O 82 60 min 0.178 mm 0.5 UV-I 225 W/m -2.4 C 9.9 C 8.0 km/h (2 Bft) 99.15 %
20.03.2019 16:00 10.2 C 28.9 C 14.4 C 9.4 C 40 % 1035.9 hPa 0.0 l/m 3.7 km/h (1 Bft) O-NO 74 60 min 0.305 mm 1.3 UV-I 404 W/m -2.8 C 10.2 C 11.3 km/h (2 Bft) 97.44 %
20.03.2019 15:00 10.7 C 28.9 C 13.9 C 8.3 C 40 % 1036.2 hPa 0.0 l/m 7.3 km/h (2 Bft) O-SO 103 60 min 0.305 mm 2.3 UV-I 544 W/m -2.3 C 10.1 C 14.5 km/h (3 Bft) 95.73 %
20.03.2019 14:00 10.3 C 28.3 C 12.8 C 8.3 C 43 % 1036.3 hPa 0.0 l/m 3.7 km/h (1 Bft) O-SO 110 60 min 0.330 mm 3.4 UV-I 648 W/m -1.7 C 10.3 C 9.7 km/h (2 Bft) 98.29 %
20.03.2019 13:00 9.7 C 27.8 C 11.1 C 7.8 C 43 % 1037.1 hPa 0.0 l/m 4.9 km/h (1 Bft) O-NO 59 60 min 0.330 mm 4.0 UV-I 695 W/m -2.3 C 9.7 C 9.7 km/h (2 Bft) 95.73 %
20.03.2019 12:00 8.9 C 27.8 C 10.0 C 5.6 C 44 % 1037.5 hPa 0.0 l/m 4.2 km/h (1 Bft) O-SO 111 60 min 0.305 mm 4.0 UV-I 692 W/m -2.7 C 8.9 C 12.9 km/h (3 Bft) 100.00 %
20.03.2019 11:00 7.6 C 27.8 C 8.3 C 2.8 C 56 % 1037.1 hPa 0.0 l/m 4.7 km/h (1 Bft) O-NO 66 60 min 0.254 mm 3.3 UV-I 631 W/m -0.6 C 7.6 C 9.7 km/h (2 Bft) 96.58 %
20.03.2019 10:00 5.9 C 21.1 C 6.1 C 2.2 C 68 % 1037.2 hPa 0.0 l/m 0.6 km/h (0 Bft) NO 48 60 min 0.178 mm 2.3 UV-I 527 W/m 0.5 C 5.9 C 4.8 km/h (1 Bft) 95.00 %
20.03.2019 09:00 2.3 C 2.2 C 4.4 C 2.2 C 88 % 1036.8 hPa 0.0 l/m 0.5 km/h (0 Bft) N-NO 13 60 min 0.102 mm 1.3 UV-I 387 W/m 0.5 C 2.3 C 3.2 km/h (1 Bft) 99.15 %
20.03.2019 08:00 -2.6 C -3.9 C 3.9 C 2.2 C 92 % 1036.6 hPa 0.0 l/m 0.0 km/h (0 Bft) N-NO 13 0 min 0.025 mm 0.0 UV-I 124 W/m -3.7 C -2.6 C 0.0 km/h (0 Bft) 95.76 %
20.03.2019 07:00 -3.8 C -5.0 C 3.9 C 2.2 C 90 % 1036.0 hPa 0.0 l/m 0.0 km/h (0 Bft) N-NO 13 0 min 0.000 mm 0.0 UV-I 21 W/m -5.2 C -3.8 C 0.0 km/h (0 Bft) 96.58 %
20.03.2019 06:00 -3.5 C -5.0 C 3.9 C 2.2 C 89 % 1035.3 hPa 0.0 l/m 0.0 km/h (0 Bft) N-NO 13 0 min 0.000 mm 0.0 UV-I 0 W/m -5.0 C -3.5 C 0.0 km/h (0 Bft) 97.44 %
_ Min-Zeit 06:25 06:00 06:00 06:00 15:45 06:00 - 06:00 - - - - - - 06:25 06:25 06:00 00:05
Minimum _ -3.8 C -5.0 C 3.9 C 2.2 C 39 % 1035.3 hPa - 0.0 km/h (0 Bft) - - - - - - -5.3 C -3.8 C 0.0 km/h (0 Bft) 75.86 %
_ Max-Zeit 14:40 15:20 16:10 16:25 08:10 22:55 06:00 17:35 - - 08:05 13:00 12:15 12:30 09:20 14:40 12:40 09:10
Maximum _ 10.7 C 29.4 C 15.0 C 10.0 C 94 % 1037.6 hPa 0.0 l/m 8.4 km/h
O (2 Bft)
- - 5 min 0.330 mm 4.1 UV-I 702 W/m 0.7 C 10.7 C 17.7 km/h
O-NO (3 Bft)
100.00 %
Durchschnitt _ 3.2 C 9.0 C 8.4 C 5.0 C 68 % 1036.6 hPa #0.0 l/m 1.4 km/h (1 Bft) O-NO - #0 min. #0.000 mm 0.0 UV-I 0 W/m -2.9 C 3.1 C 4.0 km/h (1 Bft) 97.10 %